createdAt,value
2018-03-04T00:04:09.700Z,100.00
2018-03-04T00:06:38.066Z,100.00
2018-03-04T00:09:06.729Z,100.00
2018-03-04T00:11:35.104Z,100.00
2018-03-04T00:14:04.496Z,100.00
2018-03-04T00:16:33.048Z,100.00
2018-03-04T00:19:02.584Z,100.00
2018-03-04T00:21:31.508Z,100.00
2018-03-04T00:24:05.857Z,100.00
2018-03-04T00:26:34.313Z,100.00
2018-03-04T00:31:59.011Z,100.00
2018-03-04T00:34:27.719Z,100.00
2018-03-04T00:36:57.393Z,100.00
2018-03-04T00:39:26.065Z,100.00
2018-03-04T00:42:01.464Z,100.00
2018-03-04T00:44:31.058Z,100.00
2018-03-04T00:47:02.922Z,100.00
2018-03-04T00:49:42.729Z,100.00
2018-03-04T00:52:14.394Z,100.00
2018-03-04T07:09:34.186Z,100.00
2018-03-04T07:46:44.552Z,100.00
2018-03-04T07:49:13.332Z,100.00
2018-03-04T07:51:41.683Z,100.00
2018-03-04T07:54:10.099Z,100.00
2018-03-04T07:56:38.461Z,100.00
2018-03-04T07:59:06.832Z,100.00
2018-03-04T08:01:35.286Z,100.00
2018-03-04T08:04:03.630Z,100.00
2018-03-04T08:06:32.046Z,100.00
2018-03-04T08:09:00.419Z,100.00
2018-03-04T08:11:28.819Z,100.00
2018-03-04T08:13:57.173Z,100.00
2018-03-04T08:16:25.642Z,100.00
2018-03-04T08:18:54.011Z,100.00
2018-03-04T08:21:22.360Z,100.00
2018-03-04T08:23:50.828Z,100.00
2018-03-04T08:26:31.034Z,100.00
2018-03-04T08:28:59.427Z,100.00
2018-03-04T08:31:27.746Z,100.00
2018-03-04T08:33:56.175Z,100.00
2018-03-04T08:36:24.572Z,100.00
2018-03-04T08:38:52.923Z,100.00
2018-03-04T08:41:21.305Z,100.00
2018-03-04T08:43:49.681Z,100.00
2018-03-04T08:46:18.078Z,100.00
2018-03-04T08:48:46.460Z,100.00
2018-03-04T08:51:14.837Z,100.00
2018-03-04T08:53:43.211Z,100.00
2018-03-04T08:56:11.554Z,100.00
2018-03-04T08:58:39.969Z,100.00
2018-03-04T09:01:08.356Z,100.00
2018-03-04T09:03:36.735Z,100.00
2018-03-04T09:06:05.111Z,100.00
2018-03-04T09:08:33.522Z,100.00
2018-03-04T09:11:02.587Z,100.00
2018-03-04T09:13:30.924Z,100.00
2018-03-04T09:15:59.299Z,100.00
2018-03-04T09:18:27.653Z,100.00
2018-03-04T09:20:56.021Z,100.00
2018-03-04T09:23:24.534Z,100.00
2018-03-04T09:25:52.949Z,100.00
2018-03-04T09:28:21.351Z,100.00
2018-03-04T09:30:49.878Z,100.00
2018-03-04T09:33:18.300Z,100.00
2018-03-04T09:35:46.664Z,100.00
2018-03-04T09:38:15.044Z,100.00
2018-03-04T09:40:43.411Z,100.00
2018-03-04T09:43:11.874Z,100.00
2018-03-04T09:45:40.279Z,100.00
2018-03-04T09:48:08.647Z,100.00
2018-03-04T09:50:37.004Z,100.00
2018-03-04T09:53:05.404Z,100.00
2018-03-04T09:55:33.784Z,100.00
2018-03-04T09:58:02.202Z,100.00
2018-03-04T10:00:30.660Z,100.00
2018-03-04T10:02:58.987Z,100.00
2018-03-04T10:05:27.396Z,100.00
2018-03-04T10:07:55.780Z,100.00
2018-03-04T10:10:24.126Z,100.00
2018-03-04T10:12:52.480Z,100.00
2018-03-04T10:15:20.856Z,100.00
2018-03-04T10:17:49.202Z,100.00
2018-03-04T10:20:19.855Z,100.00
2018-03-04T10:22:48.314Z,100.00
2018-03-04T10:25:16.689Z,100.00
2018-03-04T10:27:45.068Z,100.00
2018-03-04T10:30:13.419Z,100.00
2018-03-04T10:32:41.775Z,100.00
2018-03-04T10:35:10.199Z,100.00
2018-03-04T10:37:38.551Z,100.00
2018-03-04T10:40:06.957Z,100.00
2018-03-04T10:42:35.331Z,100.00
2018-03-04T10:45:03.675Z,100.00
2018-03-04T10:47:32.043Z,100.00
2018-03-04T10:50:00.378Z,100.00
2018-03-04T10:52:28.721Z,100.00
2018-03-04T10:54:57.062Z,100.00
2018-03-04T10:57:25.432Z,100.00
2018-03-04T10:59:53.812Z,100.00
2018-03-04T11:02:24.093Z,100.00
2018-03-04T11:04:52.427Z,100.00
2018-03-04T11:07:20.763Z,100.00
2018-03-04T11:09:49.134Z,100.00
2018-03-04T11:12:17.547Z,100.00
2018-03-04T11:14:45.894Z,99.96
2018-03-04T11:17:14.261Z,97.87
2018-03-04T11:19:42.774Z,95.76
2018-03-04T11:22:11.107Z,92.58
2018-03-04T11:24:39.506Z,89.26
2018-03-04T11:27:07.843Z,90.76
2018-03-04T11:29:36.263Z,87.12
2018-03-04T11:32:04.644Z,84.11
2018-03-04T11:34:33.039Z,81.55
2018-03-04T11:37:01.383Z,79.69
2018-03-04T11:39:30.714Z,79.13
2018-03-04T11:41:59.036Z,77.25
2018-03-04T11:44:27.388Z,74.36
2018-03-04T11:46:55.721Z,73.99
2018-03-04T11:49:24.145Z,71.59
2018-03-04T11:51:52.502Z,67.86
2018-03-04T11:54:20.859Z,64.25
2018-03-04T11:56:49.204Z,62.61
2018-03-04T11:59:17.576Z,59.80
2018-03-04T12:01:45.947Z,56.88
2018-03-04T12:04:14.309Z,55.12
2018-03-04T12:06:42.658Z,53.53
2018-03-04T12:09:11.029Z,51.67
2018-03-04T12:11:39.404Z,48.13
2018-03-04T12:14:07.755Z,48.03
2018-03-04T12:16:36.114Z,48.52
2018-03-04T12:19:04.459Z,47.08
2018-03-04T12:21:32.934Z,44.76
2018-03-04T12:24:01.400Z,44.06
2018-03-04T12:26:29.714Z,43.27
2018-03-04T12:28:58.080Z,44.03
2018-03-04T12:31:26.602Z,43.61
2018-03-04T12:33:54.942Z,42.84
2018-03-04T12:36:23.403Z,43.87
2018-03-04T12:38:51.746Z,44.27
2018-03-04T12:41:20.099Z,43.58
2018-03-04T12:43:50.146Z,41.73
2018-03-04T12:46:18.495Z,40.59
2018-03-04T12:48:47.900Z,40.32
2018-03-04T12:51:16.234Z,41.37
2018-03-04T12:53:44.570Z,38.61
2018-03-04T12:56:12.979Z,36.19
2018-03-04T12:58:41.295Z,36.19
2018-03-04T13:01:09.746Z,36.30
2018-03-04T13:03:38.135Z,35.78
2018-03-04T13:06:06.534Z,35.42
2018-03-04T13:08:34.882Z,36.82
2018-03-04T13:11:03.337Z,37.27
2018-03-04T13:13:31.686Z,36.35
2018-03-04T13:16:00.790Z,36.94
2018-03-04T13:18:29.202Z,36.25
2018-03-04T13:20:57.539Z,36.17
2018-03-04T13:23:25.900Z,37.98
2018-03-04T19:38:35.633Z,66.49
2018-03-04T19:41:10.647Z,66.67
2018-03-04T19:43:39.020Z,66.31
2018-03-04T19:46:08.142Z,65.93
2018-03-04T19:48:36.482Z,65.90
2018-03-04T19:51:04.804Z,66.00
2018-03-04T19:53:33.181Z,65.55
2018-03-04T19:56:01.455Z,65.41
2018-03-04T19:58:32.889Z,65.69
2018-03-04T20:01:01.387Z,65.95
2018-03-04T20:03:33.250Z,65.21
2018-03-04T20:06:01.597Z,65.67
2018-03-04T20:08:29.970Z,65.69
2018-03-04T20:10:58.336Z,65.69
2018-03-04T20:13:26.680Z,65.87
2018-03-04T20:15:55.042Z,65.99
2018-03-04T20:18:23.405Z,65.86
2018-03-04T20:20:51.744Z,66.15
2018-03-04T20:23:29.480Z,65.50
2018-03-04T20:25:57.823Z,65.67
2018-03-04T20:28:28.293Z,66.16
2018-03-04T20:30:57.316Z,66.86
2018-03-04T20:33:25.647Z,66.31
2018-03-04T20:35:53.971Z,66.88
2018-03-04T20:38:22.332Z,66.90
2018-03-04T20:40:50.716Z,66.66
2018-03-04T20:43:22.538Z,66.81
2018-03-04T20:45:50.908Z,67.52
2018-03-04T20:48:19.328Z,67.16
2018-03-04T20:50:47.689Z,67.03
2018-03-04T20:53:16.010Z,67.72
2018-03-04T20:58:26.329Z,67.37
2018-03-04T21:00:54.741Z,67.86
2018-03-04T21:03:23.064Z,67.96
2018-03-04T21:05:51.492Z,68.42
2018-03-04T21:08:19.861Z,68.03
2018-03-04T21:10:48.174Z,67.77
2018-03-04T21:13:16.622Z,67.53
2018-03-04T21:15:45.019Z,68.00
2018-03-04T21:18:13.360Z,68.43
2018-03-04T21:20:41.684Z,68.42
2018-03-04T21:23:12.370Z,68.96
2018-03-04T21:25:46.867Z,68.03
2018-03-04T21:28:19.160Z,68.85
2018-03-04T21:30:47.484Z,69.01
2018-03-04T21:33:20.166Z,68.79
2018-03-04T21:35:48.507Z,68.87
2018-03-04T21:38:16.880Z,68.65
2018-03-04T21:40:45.272Z,68.85
2018-03-04T21:43:14.399Z,68.85
2018-03-04T21:45:42.739Z,69.06
2018-03-04T21:48:11.168Z,68.72
2018-03-04T21:50:39.528Z,68.62
2018-03-04T21:53:07.994Z,68.97
2018-03-04T21:55:36.317Z,68.46
2018-03-04T21:58:05.376Z,68.44
2018-03-04T22:00:33.723Z,68.42
2018-03-04T22:03:03.420Z,68.96
2018-03-04T22:05:31.784Z,69.25
2018-03-04T22:08:00.308Z,69.33
2018-03-04T22:10:28.648Z,69.06
2018-03-04T22:12:56.971Z,68.59
2018-03-04T22:15:25.426Z,68.53
2018-03-04T22:17:53.756Z,69.08
2018-03-04T22:20:22.170Z,68.63
2018-03-04T22:22:52.813Z,68.86
2018-03-04T22:25:21.155Z,69.19
2018-03-04T22:27:52.887Z,69.27
2018-03-04T22:30:28.114Z,69.18
2018-03-04T22:32:57.708Z,69.33
2018-03-04T22:35:26.049Z,69.04
2018-03-04T22:37:55.211Z,68.83
2018-03-04T22:40:23.607Z,69.52
2018-03-04T22:42:51.926Z,69.76
2018-03-04T22:45:20.347Z,69.28
2018-03-04T22:47:54.542Z,69.83
2018-03-04T22:50:23.758Z,70.07
2018-03-04T22:52:53.956Z,69.79
2018-03-04T22:55:22.318Z,69.92
2018-03-04T22:57:53.482Z,69.55
2018-03-04T23:00:21.953Z,69.80
2018-03-04T23:02:50.486Z,70.22
2018-03-04T23:05:18.902Z,71.16
2018-03-04T23:07:47.228Z,71.98
2018-03-04T23:10:21.345Z,71.69
2018-03-04T23:12:49.653Z,71.88
2018-03-04T23:15:18.011Z,71.37
2018-03-04T23:17:46.336Z,71.06
2018-03-04T23:20:18.249Z,70.87
2018-03-04T23:22:46.655Z,70.24
2018-03-04T23:25:14.988Z,70.58
2018-03-04T23:27:44.334Z,70.60
2018-03-04T23:30:12.734Z,71.16
2018-03-04T23:32:41.113Z,70.81
2018-03-04T23:35:09.450Z,71.21
2018-03-04T23:37:37.872Z,71.05
2018-03-04T23:40:06.191Z,71.04
2018-03-04T23:42:34.609Z,71.27
2018-03-04T23:45:02.989Z,71.83
2018-03-04T23:47:31.387Z,72.47
2018-03-04T23:49:59.911Z,73.60
2018-03-04T23:52:28.263Z,73.75
2018-03-04T23:54:56.592Z,73.37
2018-03-04T23:57:24.931Z,74.07
2018-03-04T23:59:53.254Z,73.34
